Time;durP1;ratioP1;P1;durP2;ratioP2;P2;SDS_P1;SDS_P2;PMS_P1;PMS_P2;Temp;Humidity;BMP_temperature;BMP_pressure;BME280_temperature;BME280_humidity;BME280_pressure;Samples;Min_cycle;Max_cycle;Signal;HPM_P1;HPM_P2
2023/01/19 05:00:43;;;;;;;1.90;1.80;;;2.20;99.90;;;;;;5744555;23;20345;-67
2023/01/19 05:03:10;;;;;;;5.70;3.28;;;2.20;99.90;;;;;;4908093;29;20214;-67
2023/01/19 05:05:37;;;;;;;4.65;3.58;;;2.20;99.90;;;;;;4912147;29;20218;-67
2023/01/19 05:08:04;;;;;;;2.47;1.58;;;2.20;99.90;;;;;;4914467;29;20595;-67
2023/01/19 05:10:31;;;;;;;4.97;3.17;;;2.20;99.90;;;;;;4915745;29;20710;-67
2023/01/19 05:12:57;;;;;;;2.30;2.08;;;2.30;99.90;;;;;;4912977;29;20211;-66
2023/01/19 05:15:24;;;;;;;3.28;3.00;;;2.30;99.90;;;;;;4912602;29;20211;-67
2023/01/19 05:17:52;;;;;;;3.05;2.85;;;2.30;99.90;;;;;;4915642;29;20207;-67
2023/01/19 05:20:19;;;;;;;3.25;3.05;;;2.30;99.90;;;;;;4911257;29;20202;-67
2023/01/19 05:22:50;;;;;;;4.00;3.60;;;2.30;99.90;;;;;;4914054;29;20203;-68
2023/01/19 05:25:17;;;;;;;5.47;4.07;;;2.30;99.90;;;;;;4911701;29;20254;-67
2023/01/19 05:27:44;;;;;;;1.95;1.85;;;2.30;99.90;;;;;;4906607;29;20834;-67
2023/01/19 05:30:12;;;;;;;0.57;0.57;;;2.30;99.90;;;;;;4910092;29;20230;-68
2023/01/19 05:32:39;;;;;;;1.83;1.73;;;2.30;99.90;;;;;;4909190;29;20208;-68
2023/01/19 05:35:08;;;;;;;1.48;1.38;;;2.30;99.90;;;;;;4907084;29;20218;-68
2023/01/19 05:37:34;;;;;;;0.73;0.73;;;2.30;99.90;;;;;;4914545;29;20222;-68
2023/01/19 05:40:01;;;;;;;8.07;1.38;;;2.30;99.90;;;;;;4910490;29;20210;-69
2023/01/19 05:42:28;;;;;;;2.50;1.35;;;2.30;99.90;;;;;;4906576;29;20230;-68
2023/01/19 05:44:55;;;;;;;2.22;2.13;;;2.30;99.90;;;;;;4912671;29;20215;-68
2023/01/19 05:47:21;;;;;;;3.20;3.03;;;2.30;99.90;;;;;;4912958;29;20209;-68
2023/01/19 05:49:48;;;;;;;5.15;4.65;;;2.30;99.90;;;;;;4914275;29;20209;-68
2023/01/19 05:52:16;;;;;;;3.70;3.03;;;2.30;99.90;;;;;;4910068;29;20234;-69
2023/01/19 05:54:43;;;;;;;1.52;1.52;;;2.20;99.90;;;;;;4905743;29;20226;-69
2023/01/19 05:57:10;;;;;;;0.88;0.88;;;2.20;99.90;;;;;;4913484;29;20304;-69
2023/01/19 05:59:37;;;;;;;2.15;2.05;;;2.20;99.90;;;;;;4905823;29;20206;-69
2023/01/19 06:02:04;;;;;;;2.80;2.63;;;2.10;99.90;;;;;;4911672;29;20564;-69
2023/01/19 06:04:30;;;;;;;5.75;1.85;;;2.10;99.90;;;;;;4910997;29;20207;-69
2023/01/19 06:06:57;;;;;;;3.33;3.13;;;2.10;99.90;;;;;;4910591;29;20226;-68
2023/01/19 06:09:25;;;;;;;1.20;1.15;;;2.10;99.90;;;;;;4913091;29;20210;-69
2023/01/19 06:11:55;;;;;;;1.33;1.33;;;2.10;99.90;;;;;;4913476;29;20683;-69
2023/01/19 06:14:22;;;;;;;2.38;2.17;;;2.00;99.90;;;;;;4914109;29;20222;-68
2023/01/19 06:16:48;;;;;;;3.63;3.38;;;2.00;99.90;;;;;;4915322;29;20215;-68
2023/01/19 06:19:15;;;;;;;1.42;1.40;;;2.00;99.90;;;;;;4910125;29;20222;-68
2023/01/19 06:21:48;;;;;;;9.80;8.30;;;2.00;99.90;;;;;;4911160;29;20229;-68
2023/01/19 06:24:15;;;;;;;7.30;6.75;;;2.00;99.90;;;;;;4909090;29;20207;-68
2023/01/19 06:26:43;;;;;;;7.10;3.63;;;2.00;99.90;;;;;;4909215;29;20216;-68
2023/01/19 06:29:10;;;;;;;4.05;3.67;;;1.90;99.90;;;;;;4910650;29;20667;-68
2023/01/19 06:31:36;;;;;;;6.78;6.10;;;1.90;99.90;;;;;;4910144;29;20313;-68
2023/01/19 06:34:03;;;;;;;7.18;6.47;;;2.00;99.90;;;;;;4904436;29;20211;-68
2023/01/19 06:36:30;;;;;;;7.57;4.22;;;1.90;99.90;;;;;;4912706;29;20519;-68
2023/01/19 06:38:57;;;;;;;6.90;5.70;;;2.00;99.90;;;;;;4912871;29;20210;-68
2023/01/19 06:41:23;;;;;;;7.53;5.90;;;2.00;99.90;;;;;;4908914;29;20234;-68
2023/01/19 06:43:51;;;;;;;7.32;5.28;;;2.00;99.90;;;;;;4911192;29;20210;-67
2023/01/19 06:46:18;;;;;;;6.93;4.35;;;2.00;99.90;;;;;;4914564;29;20202;-67
2023/01/19 06:48:45;;;;;;;3.90;3.90;;;2.00;99.90;;;;;;4913464;29;20384;-67
2023/01/19 06:51:11;;;;;;;2.85;2.47;;;2.00;99.90;;;;;;4916020;29;20244;-68
2023/01/19 06:53:38;;;;;;;3.47;3.17;;;2.00;99.90;;;;;;4911560;29;20217;-68
2023/01/19 06:56:06;;;;;;;2.17;2.08;;;1.90;99.90;;;;;;4911160;29;20581;-68
2023/01/19 06:58:33;;;;;;;1.23;1.23;;;2.00;99.90;;;;;;4909197;29;20628;-68
2023/01/19 07:01:02;;;;;;;4.47;3.35;;;2.00;99.90;;;;;;4910416;29;20242;-68
2023/01/19 07:03:29;;;;;;;5.88;3.72;;;2.00;99.90;;;;;;4908962;29;20210;-68
2023/01/19 07:05:56;;;;;;;2.30;2.05;;;2.00;99.90;;;;;;4908336;29;20218;-69
2023/01/19 07:08:23;;;;;;;2.58;2.58;;;2.00;99.90;;;;;;4912314;29;20294;-68
2023/01/19 07:10:50;;;;;;;5.45;2.92;;;2.00;99.90;;;;;;4904857;29;20246;-68
2023/01/19 07:13:17;;;;;;;5.13;1.92;;;2.00;99.90;;;;;;4910005;29;20547;-68
2023/01/19 07:15:44;;;;;;;1.45;1.35;;;2.00;99.90;;;;;;4913228;29;20292;-67
2023/01/19 07:18:12;;;;;;;2.15;2.05;;;2.00;99.90;;;;;;4917143;29;20241;-69
2023/01/19 07:20:39;;;;;;;1.40;1.30;;;2.00;99.90;;;;;;4913736;29;20225;-68
2023/01/19 07:23:05;;;;;;;2.70;2.60;;;2.10;99.90;;;;;;4911044;29;20213;-68
2023/01/19 07:25:32;;;;;;;3.80;2.08;;;2.10;99.90;;;;;;4910195;29;20723;-68
2023/01/19 07:27:59;;;;;;;2.47;2.47;;;2.10;99.90;;;;;;4913735;29;20214;-68
2023/01/19 07:30:26;;;;;;;3.70;2.03;;;2.10;99.90;;;;;;4910399;29;20237;-68
2023/01/19 07:32:56;;;;;;;5.65;4.70;;;2.10;99.90;;;;;;4915560;29;20211;-68
2023/01/19 07:35:24;;;;;;;4.68;3.13;;;2.10;99.90;;;;;;4910064;29;20218;-67
2023/01/19 07:37:51;;;;;;;2.70;2.50;;;2.10;99.90;;;;;;4914855;29;20659;-68
2023/01/19 07:40:18;;;;;;;2.65;2.45;;;2.20;99.90;;;;;;4916407;29;20207;-68
2023/01/19 07:42:49;;;;;;;2.58;2.50;;;2.20;99.90;;;;;;4916161;29;20233;-68
2023/01/19 07:45:16;;;;;;;10.50;3.45;;;2.20;99.90;;;;;;4908374;29;20241;-68
2023/01/19 07:47:43;;;;;;;4.65;3.40;;;2.20;99.90;;;;;;4911226;29;20218;-68
2023/01/19 07:50:12;;;;;;;2.00;1.90;;;2.20;99.90;;;;;;4906047;29;20223;-68
2023/01/19 07:52:40;;;;;;;1.48;1.48;;;2.20;99.90;;;;;;4914261;29;20263;-68
2023/01/19 07:55:08;;;;;;;1.30;1.25;;;2.20;99.90;;;;;;4913797;29;20222;-68
2023/01/19 07:57:35;;;;;;;2.83;2.72;;;2.20;99.90;;;;;;4914766;29;20586;-67
2023/01/19 08:00:03;;;;;;;2.42;1.45;;;2.20;99.90;;;;;;4913598;29;20218;-68
2023/01/19 08:02:30;;;;;;;5.32;2.20;;;2.30;99.90;;;;;;4915695;29;20594;-68
2023/01/19 08:04:57;;;;;;;2.50;2.30;;;2.20;99.90;;;;;;4913494;29;20257;-69
2023/01/19 08:07:24;;;;;;;2.40;2.38;;;2.30;99.90;;;;;;4914029;29;20588;-68
2023/01/19 08:09:52;;;;;;;4.20;3.85;;;2.50;99.90;;;;;;4906549;29;20259;-68
2023/01/19 08:12:19;;;;;;;7.80;4.07;;;2.50;99.90;;;;;;4916423;29;20570;-68
2023/01/19 08:14:45;;;;;;;5.85;5.22;;;2.40;99.90;;;;;;4909718;29;20203;-69
2023/01/19 08:17:13;;;;;;;2.92;2.80;;;2.40;99.90;;;;;;4904917;29;20221;-68
2023/01/19 08:19:40;;;;;;;2.28;2.28;;;2.40;99.90;;;;;;4914503;29;20214;-69
2023/01/19 08:22:07;;;;;;;2.75;2.63;;;2.40;99.90;;;;;;4910375;29;20236;-68
2023/01/19 08:24:33;;;;;;;5.57;3.90;;;2.40;99.90;;;;;;4907386;29;20208;-69
2023/01/19 08:27:02;;;;;;;3.78;3.50;;;2.40;99.90;;;;;;4911915;29;20225;-69
2023/01/19 08:29:30;;;;;;;4.82;4.38;;;2.40;99.90;;;;;;4914587;29;20294;-69
2023/01/19 08:31:58;;;;;;;2.17;2.08;;;2.40;99.90;;;;;;4906469;29;20406;-69
2023/01/19 08:34:25;;;;;;;2.78;2.67;;;2.40;99.90;;;;;;4913530;29;20218;-69
2023/01/19 08:36:52;;;;;;;2.10;1.85;;;2.40;99.90;;;;;;4914481;29;20711;-69
2023/01/19 08:39:19;;;;;;;1.33;1.33;;;2.40;99.90;;;;;;4913813;29;20571;-69
2023/01/19 08:41:46;;;;;;;1.58;1.58;;;2.30;99.90;;;;;;4915318;29;20223;-69
2023/01/19 08:44:14;;;;;;;5.50;4.70;;;2.30;99.90;;;;;;4915876;29;20326;-68
2023/01/19 08:46:41;;;;;;;2.67;2.47;;;2.30;99.90;;;;;;4914764;29;20206;-68
2023/01/19 08:49:08;;;;;;;2.88;2.67;;;2.30;99.90;;;;;;4911850;29;20640;-68
2023/01/19 08:51:35;;;;;;;3.97;3.67;;;2.40;99.90;;;;;;4909727;29;20789;-68
2023/01/19 08:54:02;;;;;;;5.40;3.08;;;2.40;99.90;;;;;;4914486;29;20211;-68
2023/01/19 08:56:28;;;;;;;7.38;5.97;;;2.40;99.90;;;;;;4907557;29;21123;-69
2023/01/19 08:58:55;;;;;;;4.97;3.42;;;2.40;99.90;;;;;;4913767;29;20214;-69
2023/01/19 09:01:24;;;;;;;3.85;2.80;;;2.40;99.90;;;;;;4914112;29;20692;-69
2023/01/19 09:03:51;;;;;;;1.83;1.65;;;2.40;99.90;;;;;;4911148;29;20210;-69
2023/01/19 09:06:18;;;;;;;2.50;2.05;;;2.50;99.90;;;;;;4906462;29;20258;-67
2023/01/19 09:08:45;;;;;;;4.32;1.48;;;2.50;99.90;;;;;;4906635;29;20222;-68
2023/01/19 09:11:14;;;;;;;1.88;1.88;;;2.50;99.90;;;;;;4915574;29;20250;-68
2023/01/19 09:13:42;;;;;;;3.85;3.75;;;2.50;99.90;;;;;;4913594;29;20295;-67
2023/01/19 09:16:11;;;;;;;3.05;2.85;;;2.50;99.90;;;;;;4914743;29;20216;-68
2023/01/19 09:18:41;;;;;;;4.85;4.40;;;2.60;99.90;;;;;;4913254;29;20207;-68
2023/01/19 09:21:13;;;;;;;3.10;2.38;;;2.60;99.90;;;;;;4910320;29;20230;-68
2023/01/19 09:23:54;;;;;;;3.40;3.20;;;2.60;99.90;;;;;;4907997;29;20590;-67
2023/01/19 09:26:23;;;;;;;4.05;3.85;;;2.60;99.90;;;;;;4914063;29;20218;-68
2023/01/19 09:28:55;;;;;;;3.28;2.97;;;2.70;99.90;;;;;;4910331;29;20556;-68
2023/01/19 09:31:27;;;;;;;6.70;3.33;;;2.80;99.90;;;;;;4907153;29;20223;-68
2023/01/19 09:33:58;;;;;;;1.33;1.33;;;2.90;99.90;;;;;;4908914;29;20242;-68
2023/01/19 09:36:27;;;;;;;5.43;3.40;;;2.90;99.90;;;;;;4916032;29;20674;-68
2023/01/19 09:38:56;;;;;;;4.05;3.75;;;3.00;99.90;;;;;;4917348;29;20213;-68
2023/01/19 09:41:27;;;;;;;16.98;6.75;;;3.10;99.90;;;;;;4913911;29;20227;-68
2023/01/19 09:44:00;;;;;;;5.03;4.80;;;3.20;99.90;;;;;;4915422;29;20218;-68
2023/01/19 09:46:35;;;;;;;4.80;4.30;;;3.30;99.90;;;;;;4910615;29;20215;-68
2023/01/19 09:49:13;;;;;;;2.50;2.30;;;3.30;99.90;;;;;;4911568;29;20211;-68
2023/01/19 09:51:45;;;;;;;3.60;2.03;;;3.40;99.90;;;;;;4906200;29;20638;-68
2023/01/19 09:54:21;;;;;;;3.97;2.20;;;3.40;99.90;;;;;;4907844;29;20211;-68
2023/01/19 09:56:54;;;;;;;8.55;4.72;;;3.50;99.90;;;;;;4909278;29;20288;-68
2023/01/19 09:59:27;;;;;;;6.35;5.10;;;3.60;99.90;;;;;;4912323;29;20207;-68
2023/01/19 10:02:07;;;;;;;5.40;1.98;;;3.60;99.90;;;;;;4909572;29;20640;-69
2023/01/19 10:04:40;;;;;;;4.65;3.05;;;3.60;99.90;;;;;;4909843;29;20501;-68
2023/01/19 10:07:17;;;;;;;5.78;2.03;;;3.60;99.90;;;;;;4908510;29;20236;-69
2023/01/19 10:10:04;;;;;;;11.35;6.25;;;3.70;99.90;;;;;;4908350;29;20202;-69
2023/01/19 10:12:41;;;;;;;2.42;2.33;;;3.70;99.90;;;;;;4914984;29;20226;-68
2023/01/19 10:15:20;;;;;;;6.55;4.03;;;3.60;99.90;;;;;;4912710;29;20324;-69
2023/01/19 10:17:56;;;;;;;3.70;2.78;;;3.60;99.90;;;;;;4912155;29;20206;-69
2023/01/19 10:20:31;;;;;;;4.13;2.83;;;3.60;99.90;;;;;;4907016;29;20667;-69
2023/01/19 10:22:59;;;;;;;2.28;2.17;;;3.60;99.90;;;;;;4908288;29;20194;-69
2023/01/19 10:25:27;;;;;;;1.50;1.40;;;3.60;99.90;;;;;;4916474;29;20211;-68
2023/01/19 10:27:54;;;;;;;4.82;4.25;;;3.50;99.90;;;;;;4916726;29;20203;-68
2023/01/19 10:30:24;;;;;;;1.52;1.42;;;3.50;99.90;;;;;;4914674;29;20208;-68
2023/01/19 10:32:52;;;;;;;2.13;2.03;;;3.50;99.90;;;;;;4911483;29;20226;-68
2023/01/19 10:35:23;;;;;;;3.15;2.50;;;3.50;99.90;;;;;;4905483;29;20209;-68
2023/01/19 10:37:52;;;;;;;1.67;1.65;;;3.50;99.90;;;;;;4911844;29;20219;-68
2023/01/19 10:40:28;;;;;;;2.17;1.38;;;3.50;99.90;;;;;;4906530;29;20219;-68
2023/01/19 10:42:57;;;;;;;2.08;1.88;;;3.50;99.90;;;;;;4913803;29;20230;-68
2023/01/19 10:45:26;;;;;;;6.60;3.92;;;3.60;99.90;;;;;;4908278;29;20255;-68
2023/01/19 10:47:55;;;;;;;2.67;2.20;;;3.60;99.90;;;;;;4911311;29;20229;-68
2023/01/19 10:50:24;;;;;;;7.65;3.35;;;3.60;99.90;;;;;;4914473;29;20211;-68
2023/01/19 10:52:53;;;;;;;3.47;3.28;;;3.60;99.90;;;;;;4900128;29;20342;-68
2023/01/19 10:55:26;;;;;;;3.70;2.25;;;3.60;99.90;;;;;;4897773;29;20207;-68
2023/01/19 10:57:52;;;;;;;2.13;1.92;;;3.60;99.90;;;;;;4912569;29;20214;-68
2023/01/19 11:00:34;;;;;;;2.35;1.83;;;3.50;99.90;;;;;;4914573;29;20214;-68
2023/01/19 11:03:01;;;;;;;1.30;1.30;;;3.50;99.90;;;;;;4908808;29;20230;-68
2023/01/19 11:05:29;;;;;;;2.45;2.35;;;3.50;99.90;;;;;;4913411;29;20210;-68
2023/01/19 11:07:58;;;;;;;3.28;2.97;;;3.50;99.90;;;;;;4908538;29;20219;-68
2023/01/19 11:10:26;;;;;;;1.88;1.80;;;3.60;99.90;;;;;;4909560;29;20211;-68
2023/01/19 11:12:59;;;;;;;1.90;1.25;;;3.60;99.90;;;;;;4904215;29;20242;-69
2023/01/19 11:15:31;;;;;;;1.52;1.45;;;3.70;99.90;;;;;;4902177;29;20219;-68
2023/01/19 11:18:02;;;;;;;2.78;2.63;;;3.80;99.90;;;;;;4905802;29;20222;-72
2023/01/19 11:20:35;;;;;;;3.33;3.08;;;3.90;99.90;;;;;;4903839;29;20207;-68
2023/01/19 11:23:16;;;;;;;2.25;2.15;;;4.00;99.90;;;;;;4913225;29;20202;-69
2023/01/19 11:25:47;;;;;;;1.92;1.83;;;3.90;99.90;;;;;;4909856;29;20207;-69
2023/01/19 11:28:19;;;;;;;2.38;2.38;;;3.90;99.90;;;;;;4912281;29;20219;-68
2023/01/19 11:30:55;;;;;;;2.97;2.70;;;3.80;99.90;;;;;;4909092;29;20228;-69
2023/01/19 11:33:26;;;;;;;3.88;2.22;;;3.80;99.90;;;;;;4911316;29;20217;-68
2023/01/19 11:36:03;;;;;;;3.20;2.97;;;3.70;99.90;;;;;;4908864;29;20212;-68
2023/01/19 11:38:31;;;;;;;4.22;3.85;;;3.80;99.90;;;;;;4911278;29;20203;-68
2023/01/19 11:40:59;;;;;;;2.28;2.17;;;3.80;99.90;;;;;;4911880;29;20231;-68
2023/01/19 11:43:29;;;;;;;4.15;2.10;;;3.80;99.90;;;;;;4911269;29;20563;-68
2023/01/19 11:45:58;;;;;;;5.38;4.18;;;3.80;99.90;;;;;;4912249;29;20218;-68
2023/01/19 11:48:32;;;;;;;2.92;2.72;;;3.90;99.90;;;;;;4912448;29;20558;-69
2023/01/19 11:51:03;;;;;;;2.00;1.90;;;3.90;99.90;;;;;;4905819;29;20681;-68
2023/01/19 11:53:33;;;;;;;1.45;1.45;;;4.00;99.90;;;;;;4910508;29;20239;-69
2023/01/19 11:56:04;;;;;;;1.92;1.92;;;4.00;99.90;;;;;;4908237;29;20207;-68
2023/01/19 11:58:33;;;;;;;1.70;1.65;;;4.00;99.90;;;;;;4908176;29;20575;-68
2023/01/19 12:01:04;;;;;;;2.50;2.40;;;4.00;99.90;;;;;;4916742;29;20250;-68
2023/01/19 12:03:37;;;;;;;3.22;2.95;;;4.00;99.90;;;;;;4917615;29;20680;-69
2023/01/19 12:06:07;;;;;;;3.35;3.20;;;3.90;99.90;;;;;;4910953;29;20549;-69
2023/01/19 12:08:39;;;;;;;3.08;2.75;;;3.90;99.90;;;;;;4920208;29;20222;-68
2023/01/19 12:11:10;;;;;;;4.93;2.95;;;3.90;99.90;;;;;;4915592;29;20238;-68
2023/01/19 12:13:39;;;;;;;4.22;2.75;;;3.80;99.90;;;;;;4919232;29;20215;-69
2023/01/19 12:16:10;;;;;;;2.35;2.25;;;3.80;99.90;;;;;;4920019;29;20676;-69
2023/01/19 12:18:41;;;;;;;2.20;1.85;;;3.80;99.90;;;;;;4919666;29;20534;-69
2023/01/19 12:21:08;;;;;;;4.95;4.45;;;3.80;99.90;;;;;;4914460;29;20241;-69
2023/01/19 12:23:49;;;;;;;2.25;1.85;;;3.80;99.90;;;;;;4915124;29;20207;-69
2023/01/19 12:26:35;;;;;;;1.58;1.48;;;3.90;99.90;;;;;;4918043;29;20223;-69
2023/01/19 12:29:07;;;;;;;2.20;1.98;;;3.90;99.90;;;;;;4906635;29;20293;-69
2023/01/19 12:31:34;;;;;;;3.20;3.00;;;3.90;99.90;;;;;;4918207;29;20235;-69
2023/01/19 12:34:38;;;;;;;3.00;2.80;;;3.90;99.90;;;;;;4911754;29;20238;-69
2023/01/19 12:37:07;;;;;;;5.35;3.60;;;3.90;99.90;;;;;;4916253;29;20221;-69
2023/01/19 12:39:47;;;;;;;4.72;3.30;;;3.90;99.90;;;;;;4914674;29;20222;-69
2023/01/19 12:42:17;;;;;;;4.22;3.92;;;3.90;99.90;;;;;;4911492;29;20234;-69
2023/01/19 12:44:45;;;;;;;4.55;4.15;;;4.00;99.90;;;;;;4908122;29;20214;-69
2023/01/19 12:47:21;;;;;;;2.92;2.83;;;4.00;99.90;;;;;;4915325;29;20218;-69
2023/01/19 12:49:50;;;;;;;7.75;5.90;;;4.00;99.90;;;;;;4916530;29;20271;-69
2023/01/19 12:52:40;;;;;;;7.88;4.18;;;4.10;99.90;;;;;;4915212;29;20313;-71
2023/01/19 12:55:22;;;;;;;3.80;2.88;;;4.10;99.90;;;;;;4914221;29;20214;-69
2023/01/19 12:57:56;;;;;;;4.80;3.33;;;4.10;99.90;;;;;;4914768;29;20226;-69
2023/01/19 13:00:32;;;;;;;2.85;2.72;;;4.10;99.90;;;;;;4912552;29;20217;-69
2023/01/19 13:03:00;;;;;;;5.07;3.72;;;4.20;99.90;;;;;;4912737;29;20207;-69
2023/01/19 13:05:57;;;;;;;7.13;3.75;;;4.20;99.90;;;;;;4909122;29;20219;-68
2023/01/19 13:08:58;;;;;;;2.38;2.25;;;4.20;99.90;;;;;;4903276;29;20211;-68
2023/01/19 13:11:27;;;;;;;2.08;2.05;;;4.20;99.90;;;;;;4909265;29;20234;-67
2023/01/19 13:14:34;;;;;;;2.10;2.10;;;4.30;99.90;;;;;;4912428;29;20243;-68
2023/01/19 13:17:05;;;;;;;2.95;2.75;;;4.30;99.90;;;;;;4909351;29;20235;-68
2023/01/19 13:19:44;;;;;;;3.80;2.67;;;4.30;99.90;;;;;;4914786;29;20210;-68
2023/01/19 13:23:03;;;;;;;3.30;3.00;;;4.20;99.90;;;;;;4915497;29;20231;-68
2023/01/19 13:25:35;;;;;;;2.53;2.28;;;4.20;99.90;;;;;;4910195;29;20204;-68
2023/01/19 13:28:10;;;;;;;2.00;1.90;;;4.10;99.90;;;;;;4913014;29;20287;-68
2023/01/19 13:30:53;;;;;;;4.07;2.58;;;4.10;99.90;;;;;;4911003;29;20253;-69
2023/01/19 13:33:22;;;;;;;2.40;2.20;;;4.10;99.90;;;;;;4907600;29;20231;-68
2023/01/19 13:35:55;;;;;;;2.85;2.70;;;4.10;99.90;;;;;;4914711;29;20234;-68
2023/01/19 13:38:23;;;;;;;2.30;2.10;;;4.10;99.90;;;;;;4907834;29;20333;-68
2023/01/19 13:40:52;;;;;;;2.78;2.58;;;4.10;99.90;;;;;;4913703;29;20594;-68
2023/01/19 13:43:25;;;;;;;3.03;2.72;;;4.10;99.90;;;;;;4913534;29;20664;-68
2023/01/19 13:45:52;;;;;;;3.10;2.83;;;4.10;99.90;;;;;;4912816;29;20548;-68
2023/01/19 13:48:22;;;;;;;13.68;2.45;;;4.10;99.90;;;;;;4910931;29;20237;-68
2023/01/19 13:51:03;;;;;;;2.25;2.13;;;4.10;99.90;;;;;;4911627;29;20231;-68
2023/01/19 13:53:31;;;;;;;6.05;3.90;;;4.10;99.90;;;;;;4912386;29;20222;-68
2023/01/19 13:56:09;;;;;;;2.28;2.17;;;4.10;99.90;;;;;;4911795;29;20618;-68
2023/01/19 13:58:38;;;;;;;2.03;1.85;;;4.10;99.90;;;;;;4908143;29;20211;-68
2023/01/19 14:01:04;;;;;;;1.45;1.20;;;4.10;99.90;;;;;;4909854;29;20247;-68
2023/01/19 14:03:31;;;;;;;9.13;4.32;;;4.10;99.90;;;;;;4914865;29;20675;-68
2023/01/19 14:05:58;;;;;;;2.70;1.65;;;4.10;99.90;;;;;;4912798;29;20214;-68
2023/01/19 14:08:25;;;;;;;5.00;4.55;;;4.00;99.90;;;;;;4915208;29;20215;-68
2023/01/19 14:11:01;;;;;;;5.15;3.45;;;4.00;99.90;;;;;;4916468;29;20780;-68
2023/01/19 14:13:29;;;;;;;6.13;3.40;;;4.00;99.90;;;;;;4911256;29;20227;-69
2023/01/19 14:15:59;;;;;;;1.70;1.63;;;4.00;99.90;;;;;;4905052;29;20214;-68
2023/01/19 14:18:29;;;;;;;3.70;3.15;;;4.00;99.90;;;;;;4914346;29;20674;-68
2023/01/19 14:21:00;;;;;;;1.58;1.48;;;4.00;99.90;;;;;;4908910;29;20234;-68
2023/01/19 14:23:40;;;;;;;4.60;2.63;;;3.90;99.90;;;;;;4913858;29;20235;-68
2023/01/19 14:26:22;;;;;;;6.18;3.38;;;3.90;99.90;;;;;;4910103;29;20292;-68
2023/01/19 14:28:49;;;;;;;2.55;2.45;;;3.90;99.90;;;;;;4910276;29;20199;-68
2023/01/19 14:31:21;;;;;;;6.60;3.50;;;3.80;99.90;;;;;;4913878;29;20227;-68
2023/01/19 14:33:49;;;;;;;3.50;3.28;;;3.80;99.90;;;;;;4912887;29;20234;-67
2023/01/19 14:36:37;;;;;;;3.85;3.35;;;3.80;99.90;;;;;;4910066;29;20210;-67
2023/01/19 14:39:13;;;;;;;3.20;2.92;;;3.80;99.90;;;;;;4913623;29;20258;-67
2023/01/19 14:41:46;;;;;;;2.28;2.10;;;3.80;99.90;;;;;;4911410;29;20716;-67
2023/01/19 14:44:19;;;;;;;2.92;2.72;;;3.80;99.90;;;;;;4912542;29;20211;-67
2023/01/19 14:46:49;;;;;;;3.15;1.75;;;3.80;99.90;;;;;;4905467;29;20204;-67
2023/01/19 14:49:22;;;;;;;2.75;2.65;;;3.80;99.90;;;;;;4909737;29;20207;-67
2023/01/19 14:51:50;;;;;;;4.30;4.10;;;3.70;99.90;;;;;;4906007;29;20223;-68
2023/01/19 14:54:24;;;;;;;3.20;2.95;;;3.70;99.90;;;;;;4904919;29;20252;-67
2023/01/19 14:56:53;;;;;;;4.10;2.67;;;3.70;99.90;;;;;;4906714;29;20650;-68
2023/01/19 14:59:20;;;;;;;4.15;2.13;;;3.70;99.90;;;;;;4906896;29;20207;-68
2023/01/19 15:01:48;;;;;;;4.15;3.47;;;3.70;99.90;;;;;;4912375;29;20249;-67
2023/01/19 15:04:15;;;;;;;3.33;3.10;;;3.70;99.90;;;;;;4912089;29;20584;-68
2023/01/19 15:06:44;;;;;;;3.95;3.50;;;3.70;99.90;;;;;;4905743;29;20218;-69
2023/01/19 15:09:13;;;;;;;2.67;2.58;;;3.70;99.90;;;;;;4911386;29;20302;-67
2023/01/19 15:11:41;;;;;;;7.82;4.20;;;3.70;99.90;;;;;;4911911;29;20723;-70
2023/01/19 15:14:11;;;;;;;2.60;2.45;;;3.70;99.90;;;;;;4909843;29;20773;-69
2023/01/19 15:16:38;;;;;;;5.72;2.17;;;3.70;99.90;;;;;;4905991;29;20207;-69
2023/01/19 15:19:09;;;;;;;4.05;3.90;;;3.70;99.90;;;;;;4911426;29;20203;-69
2023/01/19 15:21:36;;;;;;;2.72;2.53;;;3.70;99.90;;;;;;4912707;29;20231;-69
2023/01/19 15:24:03;;;;;;;3.47;2.67;;;3.60;99.90;;;;;;4906777;29;20563;-69
2023/01/19 15:26:29;;;;;;;4.30;4.00;;;3.60;99.90;;;;;;4905880;29;20206;-69
2023/01/19 15:28:56;;;;;;;8.73;7.55;;;3.60;99.90;;;;;;4912341;29;20223;-69
2023/01/19 15:31:25;;;;;;;5.85;3.00;;;3.60;99.90;;;;;;4912809;29;20227;-69
2023/01/19 15:33:52;;;;;;;7.00;4.60;;;3.50;99.90;;;;;;4914901;29;20646;-69
2023/01/19 15:36:22;;;;;;;3.00;2.78;;;3.50;99.90;;;;;;4915398;29;20312;-69
2023/01/19 15:38:50;;;;;;;5.43;5.10;;;3.40;99.90;;;;;;4912300;29;20209;-69
2023/01/19 15:41:22;;;;;;;3.40;3.20;;;3.40;99.90;;;;;;4916211;29;20235;-69
2023/01/19 15:43:49;;;;;;;5.75;3.33;;;3.40;99.90;;;;;;4914601;29;20310;-69
2023/01/19 15:46:19;;;;;;;3.65;2.05;;;3.40;99.90;;;;;;4915693;29;20215;-69
2023/01/19 15:48:46;;;;;;;6.57;3.20;;;3.30;99.90;;;;;;4913521;29;20212;-69
2023/01/19 15:51:14;;;;;;;3.53;3.33;;;3.30;99.90;;;;;;4916179;29;20245;-69
2023/01/19 15:53:42;;;;;;;2.83;2.72;;;3.20;99.90;;;;;;4913000;29;20222;-69
2023/01/19 15:56:15;;;;;;;2.35;2.25;;;3.20;99.90;;;;;;4915702;29;20225;-69
2023/01/19 15:58:42;;;;;;;2.75;1.85;;;3.10;99.90;;;;;;4911568;29;20266;-69
2023/01/19 16:01:12;;;;;;;7.90;2.53;;;3.10;99.90;;;;;;4912694;29;20254;-69
2023/01/19 16:03:39;;;;;;;2.05;1.92;;;3.00;99.90;;;;;;4916159;29;20215;-69
2023/01/19 16:06:06;;;;;;;2.45;2.25;;;3.00;99.90;;;;;;4913408;29;20219;-69
2023/01/19 16:08:33;;;;;;;2.90;2.40;;;3.00;99.90;;;;;;4909614;29;20216;-69
2023/01/19 16:11:05;;;;;;;1.52;1.42;;;2.90;99.90;;;;;;4909935;29;20225;-69
2023/01/19 16:13:32;;;;;;;8.93;5.85;;;2.90;99.90;;;;;;4917415;29;20215;-70
2023/01/19 16:16:02;;;;;;;5.20;4.88;;;2.80;99.90;;;;;;4916178;29;20217;-69
2023/01/19 16:18:29;;;;;;;19.77;4.95;;;2.80;99.90;;;;;;4917044;29;20577;-69
2023/01/19 16:20:56;;;;;;;2.90;2.80;;;2.80;99.90;;;;;;4914249;29;20246;-69
2023/01/19 16:23:22;;;;;;;2.30;2.20;;;2.70;99.90;;;;;;4916286;29;20202;-68
2023/01/19 16:25:56;;;;;;;2.45;2.35;;;2.70;99.90;;;;;;4916019;29;20207;-69
2023/01/19 16:28:25;;;;;;;11.07;2.55;;;2.60;99.90;;;;;;4911418;29;20231;-68
2023/01/19 16:30:52;;;;;;;2.88;2.60;;;2.60;99.90;;;;;;4914123;29;20234;-68
2023/01/19 16:33:19;;;;;;;2.08;1.75;;;2.60;99.90;;;;;;4912817;29;20226;-69
2023/01/19 16:35:46;;;;;;;3.33;3.03;;;2.60;99.90;;;;;;4915893;29;20210;-69
2023/01/19 16:38:13;;;;;;;4.53;4.25;;;2.60;99.90;;;;;;4913423;29;20218;-69
2023/01/19 16:40:39;;;;;;;16.20;4.40;;;2.60;99.90;;;;;;4904558;29;20242;-68
2023/01/19 16:43:06;;;;;;;3.58;2.22;;;2.60;99.90;;;;;;4913318;29;20214;-68
2023/01/19 16:45:34;;;;;;;3.45;2.42;;;2.50;99.90;;;;;;4915916;29;20602;-68
2023/01/19 16:48:01;;;;;;;2.28;2.03;;;2.50;99.90;;;;;;4913088;29;20219;-69
2023/01/19 16:50:28;;;;;;;2.63;2.17;;;2.50;99.90;;;;;;4914836;29;20220;-68
2023/01/19 16:52:57;;;;;;;6.30;3.50;;;2.40;99.90;;;;;;4914908;29;20820;-68
2023/01/19 16:55:24;;;;;;;3.50;2.65;;;2.40;99.90;;;;;;4915913;29;20227;-68
2023/01/19 16:57:51;;;;;;;7.32;3.03;;;2.40;99.90;;;;;;4915786;29;20222;-68
2023/01/19 17:00:18;;;;;;;7.10;5.75;;;2.40;99.90;;;;;;4914441;29;20223;-69
2023/01/19 17:02:46;;;;;;;7.80;7.13;;;2.40;99.90;;;;;;4911984;29;20207;-69
2023/01/19 17:05:13;;;;;;;5.93;4.18;;;2.40;99.90;;;;;;4908220;29;20644;-68
2023/01/19 17:07:40;;;;;;;11.23;9.07;;;2.40;99.90;;;;;;4914474;29;20206;-68
2023/01/19 17:10:08;;;;;;;16.15;6.60;;;2.40;99.90;;;;;;4914229;29;20234;-69
2023/01/19 17:12:34;;;;;;;5.05;4.60;;;2.40;99.90;;;;;;4916420;29;20249;-68
2023/01/19 17:15:01;;;;;;;5.93;3.78;;;2.30;99.90;;;;;;4916014;29;20227;-67
2023/01/19 17:17:28;;;;;;;3.88;2.65;;;2.30;99.90;;;;;;4915728;29;20680;-67
2023/01/19 17:19:56;;;;;;;9.10;3.90;;;2.30;99.90;;;;;;4916782;29;20248;-69
2023/01/19 17:22:23;;;;;;;6.55;5.07;;;2.30;99.90;;;;;;4918854;29;20231;-69
2023/01/19 17:24:49;;;;;;;3.72;3.63;;;2.30;99.90;;;;;;4916920;29;20206;-69
2023/01/19 17:27:17;;;;;;;7.88;5.32;;;2.30;99.90;;;;;;4918665;29;20672;-67
2023/01/19 17:29:43;;;;;;;8.90;4.90;;;2.30;99.90;;;;;;4918157;29;20274;-67
2023/01/19 17:32:10;;;;;;;6.18;3.22;;;2.30;99.90;;;;;;4918574;29;20258;-68
2023/01/19 17:34:37;;;;;;;9.40;5.57;;;2.20;99.90;;;;;;4917636;29;20246;-67
2023/01/19 17:37:05;;;;;;;5.85;4.60;;;2.10;99.90;;;;;;4917581;29;20211;-69
2023/01/19 17:39:32;;;;;;;3.45;3.30;;;2.10;99.90;;;;;;4918952;29;20530;-68
2023/01/19 17:41:58;;;;;;;20.80;11.35;;;2.10;99.90;;;;;;4917277;29;20244;-69
2023/01/19 17:44:25;;;;;;;7.40;5.85;;;2.00;99.90;;;;;;4918253;29;20661;-69
2023/01/19 17:46:52;;;;;;;15.70;5.45;;;2.00;99.90;;;;;;4915793;29;20293;-70
2023/01/19 17:49:19;;;;;;;4.82;3.47;;;2.00;99.90;;;;;;4918330;29;20218;-68
2023/01/19 17:51:50;;;;;;;4.72;3.42;;;2.00;99.90;;;;;;4916788;29;20557;-68
2023/01/19 17:54:18;;;;;;;42.70;8.73;;;1.90;99.90;;;;;;4918039;29;20263;-68
2023/01/19 17:56:45;;;;;;;5.32;4.93;;;1.90;99.90;;;;;;4917669;29;20547;-70
2023/01/19 17:59:12;;;;;;;3.50;3.17;;;1.90;99.90;;;;;;4915777;29;20207;-71
2023/01/19 18:01:39;;;;;;;4.85;4.72;;;1.80;99.90;;;;;;4916100;29;20241;-70
2023/01/19 18:04:06;;;;;;;6.05;5.15;;;1.80;99.90;;;;;;4916731;29;20202;-69
2023/01/19 18:06:33;;;;;;;9.95;5.57;;;1.80;99.90;;;;;;4909889;29;20207;-70
2023/01/19 18:09:00;;;;;;;8.20;7.45;;;1.80;99.90;;;;;;4914947;29;20214;-70
2023/01/19 18:11:28;;;;;;;10.85;7.68;;;1.80;99.90;;;;;;4912914;29;20565;-69